createdAt,value
2023-03-05T00:01:33.596Z,102064.84
2023-03-05T00:04:02.712Z,102070.91
2023-03-05T00:06:32.066Z,102055.94
2023-03-05T00:08:59.737Z,102047.16
2023-03-05T00:11:33.467Z,102053.19
2023-03-05T00:14:03.890Z,102057.53
2023-03-05T00:16:31.958Z,102062.75
2023-03-05T00:19:01.559Z,102051.41
2023-03-05T00:21:36.381Z,102061.88
2023-03-05T00:24:08.041Z,102059.25
2023-03-05T00:26:39.050Z,102058.31
2023-03-05T00:29:08.858Z,102053.88
2023-03-05T00:31:37.540Z,102058.97
2023-03-05T00:34:15.709Z,102055.47
2023-03-05T00:36:46.554Z,102052.81
2023-03-05T00:39:14.690Z,102046.69
2023-03-05T00:41:42.249Z,102044.91
2023-03-05T00:44:09.818Z,102039.63
2023-03-05T00:46:38.056Z,102036.13
2023-03-05T00:49:05.456Z,102037.88
2023-03-05T00:51:32.979Z,102036.09
2023-03-05T00:54:00.137Z,102028.28
2023-03-05T00:56:27.861Z,102026.22
2023-03-05T00:58:55.267Z,102018.50
2023-03-05T01:01:23.248Z,102020.31
2023-03-05T01:03:51.229Z,102016.91
2023-03-05T01:06:19.418Z,102020.31
2023-03-05T01:08:46.909Z,102013.38
2023-03-05T01:11:14.313Z,102014.22
2023-03-05T01:13:41.759Z,102015.88
2023-03-05T01:16:09.533Z,102010.66
2023-03-05T01:18:39.538Z,102007.16
2023-03-05T01:21:06.987Z,102007.16
2023-03-05T01:23:37.323Z,102001.94
2023-03-05T01:26:05.526Z,101994.09
2023-03-05T01:28:33.373Z,101991.47
2023-03-05T01:31:00.655Z,101994.03
2023-03-05T01:33:28.193Z,101989.66
2023-03-05T01:35:55.361Z,101988.75
2023-03-05T01:38:22.439Z,101986.06
2023-03-05T01:40:49.785Z,101981.75
2023-03-05T01:43:28.315Z,101973.84
2023-03-05T01:46:13.606Z,101970.34
2023-03-05T01:48:47.448Z,101969.34
2023-03-05T01:51:16.543Z,101963.22
2023-03-05T01:53:43.943Z,101958.06
2023-03-05T01:56:11.401Z,101958.00
2023-03-05T01:58:39.855Z,101963.19
2023-03-05T02:01:07.423Z,101947.41
2023-03-05T02:03:35.990Z,101950.81
2023-03-05T02:06:04.209Z,101948.94
2023-03-05T02:08:31.530Z,101938.31
2023-03-05T02:10:58.804Z,101939.94
2023-03-05T02:13:34.023Z,101930.22
2023-03-05T02:16:02.451Z,101928.41
2023-03-05T02:18:29.745Z,101926.75
2023-03-05T02:20:56.989Z,101924.13
2023-03-05T02:23:33.779Z,101916.13
2023-03-05T02:26:00.813Z,101910.88
2023-03-05T02:28:53.998Z,101913.56
2023-03-05T02:31:25.055Z,101908.34
2023-03-05T02:33:54.043Z,101905.78
2023-03-05T02:36:22.401Z,101897.97
2023-03-05T02:38:50.163Z,101902.34
2023-03-05T02:41:17.662Z,101894.47
2023-03-05T02:43:44.798Z,101899.72
2023-03-05T02:46:12.105Z,101898.91
2023-03-05T02:48:39.486Z,101884.13
2023-03-05T02:51:08.845Z,101890.25
2023-03-05T02:53:36.312Z,101887.66
2023-03-05T02:56:04.589Z,101884.13
2023-03-05T02:58:47.454Z,101875.38
2023-03-05T03:01:14.913Z,101880.50
2023-03-05T03:03:41.945Z,101869.97
2023-03-05T03:06:09.327Z,101870.84
2023-03-05T03:08:36.825Z,101863.91
2023-03-05T03:11:10.800Z,101874.34
2023-03-05T03:13:38.330Z,101862.97
2023-03-05T03:16:09.313Z,101856.81
2023-03-05T03:18:36.795Z,101855.94
2023-03-05T03:21:05.586Z,101850.72
2023-03-05T03:23:33.712Z,101848.88
2023-03-05T03:26:00.749Z,101842.84
2023-03-05T03:28:28.135Z,101844.69
2023-03-05T03:30:55.539Z,101850.66
2023-03-05T03:33:23.002Z,101842.78
2023-03-05T03:35:50.229Z,101843.53
2023-03-05T03:38:17.465Z,101844.31
2023-03-05T03:40:44.867Z,101840.78
2023-03-05T03:43:12.057Z,101836.44
2023-03-05T03:45:44.586Z,101831.16
2023-03-05T03:48:12.116Z,101828.56
2023-03-05T03:50:43.896Z,101827.63
2023-03-05T03:53:14.800Z,101830.22
2023-03-05T03:55:42.925Z,101825.00
2023-03-05T03:58:10.564Z,101815.28
2023-03-05T04:00:38.003Z,101813.41
2023-03-05T04:03:05.499Z,101798.53
2023-03-05T04:05:32.548Z,101799.31
2023-03-05T04:08:00.109Z,101794.84
2023-03-05T04:10:27.496Z,101786.06
2023-03-05T04:12:54.850Z,101785.25
2023-03-05T04:15:21.978Z,101779.84
2023-03-05T04:17:49.047Z,101791.13
2023-03-05T04:20:16.626Z,101791.06
2023-03-05T04:22:43.741Z,101790.25
2023-03-05T04:25:11.150Z,101784.13
2023-03-05T04:27:40.350Z,101789.31
2023-03-05T04:30:12.148Z,101793.63
2023-03-05T04:32:39.431Z,101787.47
2023-03-05T04:35:06.845Z,101776.84
2023-03-05T04:37:34.129Z,101775.09
2023-03-05T04:40:01.888Z,101766.38
2023-03-05T04:42:29.076Z,101771.53
2023-03-05T04:44:56.115Z,101761.09
2023-03-05T04:47:23.267Z,101768.09
2023-03-05T04:49:50.600Z,101765.44
2023-03-05T04:52:17.911Z,101771.53
2023-03-05T04:54:45.545Z,101764.53
2023-03-05T04:57:12.733Z,101769.75
2023-03-05T04:59:40.008Z,101759.31
2023-03-05T05:02:07.239Z,101762.88
2023-03-05T05:04:36.149Z,101767.25
2023-03-05T05:07:04.655Z,101755.03
2023-03-05T05:09:31.975Z,101750.66
2023-03-05T05:11:59.171Z,101750.66
2023-03-05T05:14:26.242Z,101755.88
2023-03-05T05:16:53.411Z,101754.22
2023-03-05T05:19:20.623Z,101749.00
2023-03-05T05:21:47.700Z,101745.50
2023-03-05T05:24:14.834Z,101743.78
2023-03-05T05:26:42.046Z,101742.94
2023-03-05T05:29:09.132Z,101741.16
2023-03-05T05:31:36.332Z,101735.00
2023-03-05T05:34:03.519Z,101737.47
2023-03-05T05:36:30.792Z,101731.28
2023-03-05T05:38:58.046Z,101733.84
2023-03-05T05:41:25.510Z,101732.06
2023-03-05T05:43:52.812Z,101731.19
2023-03-05T05:46:21.282Z,101733.84
2023-03-05T05:48:48.971Z,101728.63
2023-03-05T05:51:19.772Z,101723.41
2023-03-05T05:53:47.531Z,101723.34
2023-03-05T05:56:16.537Z,101728.66
2023-03-05T05:58:47.232Z,101726.06
2023-03-05T06:01:14.090Z,101723.44
2023-03-05T06:03:41.356Z,101719.91
2023-03-05T06:06:14.002Z,101718.97
2023-03-05T06:08:41.790Z,101720.78
2023-03-05T06:11:08.991Z,101719.13
2023-03-05T06:13:36.845Z,101714.75
2023-03-05T06:16:09.060Z,101704.34
2023-03-05T06:18:36.334Z,101703.47
2023-03-05T06:21:11.543Z,101709.56
2023-03-05T06:23:39.096Z,101700.84
2023-03-05T06:26:08.559Z,101705.22
2023-03-05T06:28:36.797Z,101707.84
2023-03-05T06:31:30.667Z,101693.03
2023-03-05T06:34:03.825Z,101693.88
2023-03-05T06:36:31.870Z,101696.47
2023-03-05T06:39:00.199Z,101688.69
2023-03-05T06:41:31.347Z,101691.34
2023-03-05T06:44:02.452Z,101691.47
2023-03-05T06:46:33.730Z,101695.91
2023-03-05T06:49:03.986Z,101696.97
2023-03-05T06:51:38.674Z,101698.75
2023-03-05T06:54:10.923Z,101703.13
2023-03-05T06:56:40.723Z,101701.31
2023-03-05T06:59:08.987Z,101700.63
2023-03-05T07:01:36.668Z,101694.56
2023-03-05T07:04:04.922Z,101694.56
2023-03-05T07:06:38.854Z,101705.09
2023-03-05T07:09:07.590Z,101701.47
2023-03-05T07:11:35.344Z,101702.19
2023-03-05T07:14:03.770Z,101699.50
2023-03-05T07:16:34.165Z,101702.34
2023-03-05T07:19:05.386Z,101698.38
2023-03-05T07:21:36.422Z,101701.28
2023-03-05T07:24:06.624Z,101694.75
2023-03-05T07:26:33.908Z,101690.09
2023-03-05T07:29:02.211Z,101686.34
2023-03-05T07:31:32.000Z,101686.88
2023-03-05T07:34:01.891Z,101684.72
2023-03-05T07:36:30.030Z,101691.06
2023-03-05T07:38:57.241Z,101684.34
2023-03-05T07:41:24.668Z,101686.41
2023-03-05T07:43:54.906Z,101684.91
2023-03-05T07:46:27.903Z,101684.06
2023-03-05T07:48:55.750Z,101688.44
2023-03-05T07:51:25.590Z,101687.56
2023-03-05T07:53:55.782Z,101679.84
2023-03-05T07:56:35.737Z,101680.81
2023-03-05T07:59:07.167Z,101672.28
2023-03-05T08:01:35.628Z,101667.34
2023-03-05T08:04:05.117Z,101674.59
2023-03-05T08:06:32.467Z,101666.97
2023-03-05T08:09:00.151Z,101669.00
2023-03-05T08:11:28.752Z,101663.16
2023-03-05T08:13:59.365Z,101672.91
2023-03-05T08:16:27.594Z,101675.72
2023-03-05T08:18:58.305Z,101668.84
2023-03-05T08:21:35.768Z,101674.22
2023-03-05T08:24:06.467Z,101668.25
2023-03-05T08:26:37.715Z,101665.69
2023-03-05T08:29:07.308Z,101660.53
2023-03-05T08:31:36.078Z,101665.94
2023-03-05T08:34:05.048Z,101659.97
2023-03-05T08:36:32.672Z,101652.25
2023-03-05T08:39:00.086Z,101653.44
2023-03-05T08:41:27.385Z,101652.78
2023-03-05T08:43:54.656Z,101650.53
2023-03-05T08:46:22.079Z,101642.88
2023-03-05T08:48:49.244Z,101645.72
2023-03-05T08:51:20.375Z,101642.56
2023-03-05T08:53:47.918Z,101638.44
2023-03-05T08:56:15.830Z,101638.56
2023-03-05T08:58:44.095Z,101637.78
2023-03-05T09:01:12.254Z,101636.97
2023-03-05T09:03:41.062Z,101634.34
2023-03-05T09:06:10.945Z,101630.22
2023-03-05T09:08:38.502Z,101631.50
2023-03-05T09:11:08.432Z,101623.88
2023-03-05T09:13:36.538Z,101626.63
2023-03-05T09:16:08.022Z,101622.25
2023-03-05T09:18:37.028Z,101624.91
2023-03-05T09:21:11.939Z,101623.25
2023-03-05T09:23:40.138Z,101619.75
2023-03-05T09:26:10.724Z,101618.84
2023-03-05T09:28:39.549Z,101612.75
2023-03-05T09:31:09.483Z,101610.13
2023-03-05T09:33:38.242Z,101607.25
2023-03-05T09:36:16.798Z,101600.94
2023-03-05T09:38:43.926Z,101600.81
2023-03-05T09:41:37.071Z,101597.22
2023-03-05T09:44:16.200Z,101598.28
2023-03-05T09:47:35.637Z,101600.22
2023-03-05T09:50:40.271Z,101590.78
2023-03-05T09:53:28.348Z,101593.50
2023-03-05T09:56:00.559Z,101597.91
2023-03-05T09:58:56.215Z,101593.69
2023-03-05T10:01:44.713Z,101592.50
2023-03-05T10:04:41.310Z,101588.44
2023-03-05T10:07:41.792Z,101581.50
2023-03-05T10:10:27.956Z,101586.00
2023-03-05T10:13:02.050Z,101585.91
2023-03-05T10:15:51.694Z,101588.38
2023-03-05T10:19:09.837Z,101589.78
2023-03-05T10:22:17.921Z,101577.13
2023-03-05T10:25:18.725Z,101576.06
2023-03-05T10:27:54.285Z,101574.25
2023-03-05T10:30:33.715Z,101572.66
2023-03-05T10:33:41.519Z,101565.88
2023-03-05T10:36:24.259Z,101560.69
2023-03-05T10:39:04.713Z,101558.94
2023-03-05T10:41:55.864Z,101561.72
2023-03-05T10:45:05.980Z,101553.28
2023-03-05T10:47:57.732Z,101551.03
2023-03-05T10:50:38.384Z,101547.53
2023-03-05T10:54:02.187Z,101549.03
2023-03-05T10:56:31.812Z,101541.69
2023-03-05T10:58:59.226Z,101537.03
2023-03-05T11:01:31.927Z,101539.38
2023-03-05T11:04:07.035Z,101540.88
2023-03-05T11:06:37.683Z,101535.44
2023-03-05T11:09:19.892Z,101535.28
2023-03-05T11:12:22.249Z,101534.25
2023-03-05T11:15:11.060Z,101534.69
2023-03-05T11:18:03.986Z,101537.44
2023-03-05T11:20:36.847Z,101534.38
2023-03-05T11:23:25.166Z,101537.56
2023-03-05T11:26:13.646Z,101532.66
2023-03-05T11:28:53.128Z,101537.47
2023-03-05T11:31:24.513Z,101518.44
2023-03-05T11:34:08.613Z,101521.44
2023-03-05T11:36:43.179Z,101520.78
2023-03-05T11:39:17.413Z,101514.81
2023-03-05T11:42:17.279Z,101514.03
2023-03-05T11:44:55.888Z,101515.88
2023-03-05T11:47:50.860Z,101508.91
2023-03-05T11:50:34.024Z,101511.72
2023-03-05T11:53:12.785Z,101497.88
2023-03-05T11:56:24.303Z,101498.84
2023-03-05T11:59:05.380Z,101483.91
2023-03-05T12:01:43.892Z,101478.59
2023-03-05T12:04:11.631Z,101472.50
2023-03-05T12:06:49.292Z,101468.16
2023-03-05T12:09:43.301Z,101473.47
2023-03-05T12:12:56.629Z,101466.38
2023-03-05T12:15:46.087Z,101455.59
2023-03-05T12:18:42.774Z,101447.47
2023-03-05T12:21:36.959Z,101448.28
2023-03-05T12:24:26.723Z,101437.66
2023-03-05T12:27:02.242Z,101431.31
2023-03-05T12:29:51.661Z,101423.13
2023-03-05T12:32:45.073Z,101415.72
2023-03-05T12:35:30.257Z,101414.53
2023-03-05T12:38:06.187Z,101411.66
2023-03-05T12:40:37.814Z,101407.16
2023-03-05T12:43:26.748Z,101398.28
2023-03-05T12:46:23.777Z,101387.53
2023-03-05T12:48:52.629Z,101388.25
2023-03-05T12:51:36.497Z,101381.09
2023-03-05T12:54:40.857Z,101382.66
2023-03-05T12:57:17.513Z,101374.72
2023-03-05T13:00:05.457Z,101367.75
2023-03-05T13:02:39.022Z,101362.53
2023-03-05T13:05:34.097Z,101363.50
2023-03-05T13:08:32.713Z,101361.81
2023-03-05T13:11:04.408Z,101354.00
2023-03-05T13:13:37.330Z,101344.38
2023-03-05T13:16:05.702Z,101341.72
2023-03-05T13:18:34.324Z,101340.78
2023-03-05T13:21:20.599Z,101330.31
2023-03-05T13:24:00.834Z,101328.75
2023-03-05T13:26:48.756Z,101325.50
2023-03-05T13:29:30.803Z,101328.53
2023-03-05T13:32:27.875Z,101322.81
2023-03-05T13:34:58.821Z,101323.88
2023-03-05T13:37:31.688Z,101328.38
2023-03-05T13:40:07.187Z,101323.22
2023-03-05T13:42:37.663Z,101324.22
2023-03-05T13:45:28.952Z,101323.50
2023-03-05T13:48:06.741Z,101313.09
2023-03-05T13:50:38.135Z,101312.28
2023-03-05T13:53:22.986Z,101304.34
2023-03-05T13:55:54.572Z,101301.63
2023-03-05T13:59:01.136Z,101289.28
2023-03-05T14:01:46.680Z,101286.53
2023-03-05T14:04:13.729Z,101282.88
2023-03-05T14:07:08.570Z,101271.34
2023-03-05T14:09:39.258Z,101269.41
2023-03-05T14:12:19.470Z,101271.91
2023-03-05T14:14:47.153Z,101273.47
2023-03-05T14:17:33.100Z,101261.91
2023-03-05T14:20:27.552Z,101261.78
2023-03-05T14:23:01.072Z,101259.88
2023-03-05T14:25:40.133Z,101255.44
2023-03-05T14:28:37.047Z,101251.00
2023-03-05T14:31:10.663Z,101240.50
2023-03-05T14:33:38.270Z,101236.09
2023-03-05T14:36:06.212Z,101235.22
2023-03-05T14:38:44.122Z,101235.16
2023-03-05T14:41:43.486Z,101225.50
2023-03-05T14:44:17.412Z,101219.38
2023-03-05T14:46:49.906Z,101217.66
2023-03-05T14:49:18.339Z,101225.50
2023-03-05T14:51:47.352Z,101213.25
2023-03-05T14:54:24.910Z,101218.44
2023-03-05T14:56:52.201Z,101213.16
2023-03-05T14:59:23.349Z,101205.25
2023-03-05T15:01:51.004Z,101213.06
2023-03-05T15:04:21.400Z,101196.44
2023-03-05T15:06:51.274Z,101199.06
2023-03-05T15:09:21.147Z,101186.84
2023-03-05T15:11:53.153Z,101182.44
2023-03-05T15:14:20.284Z,101187.75
2023-03-05T15:16:49.052Z,101184.31
2023-03-05T15:19:16.467Z,101184.34
2023-03-05T15:21:43.821Z,101176.47
2023-03-05T15:24:11.545Z,101183.44
2023-03-05T15:26:39.370Z,101179.03
2023-03-05T15:29:06.856Z,101178.97
2023-03-05T15:31:40.560Z,101170.97
2023-03-05T15:34:07.757Z,101165.63
2023-03-05T15:36:35.508Z,101166.44
2023-03-05T15:39:03.030Z,101158.47
2023-03-05T15:41:30.363Z,101151.47
2023-03-05T15:43:57.387Z,101149.72
2023-03-05T15:46:24.779Z,101131.34
2023-03-05T15:48:52.083Z,101140.03
2023-03-05T15:51:20.562Z,101136.53
2023-03-05T15:53:48.670Z,101137.38
2023-03-05T15:56:17.809Z,101135.56
2023-03-05T15:58:45.387Z,101124.16
2023-03-05T16:01:14.203Z,101127.56
2023-03-05T16:03:41.586Z,101118.78
2023-03-05T16:06:10.491Z,101111.81
2023-03-05T16:08:38.374Z,101111.81
2023-03-05T16:11:06.668Z,101101.31
2023-03-05T16:13:35.266Z,101100.34
2023-03-05T16:16:04.870Z,101095.97
2023-03-05T16:18:35.562Z,101089.75
2023-03-05T16:21:03.034Z,101092.31
2023-03-05T16:23:30.430Z,101085.16
2023-03-05T16:25:59.568Z,101085.09
2023-03-05T16:28:27.264Z,101081.50
2023-03-05T16:30:56.993Z,101077.88
2023-03-05T16:33:25.102Z,101073.41
2023-03-05T16:36:11.860Z,101068.91
2023-03-05T16:38:39.342Z,101072.34
2023-03-05T16:41:08.526Z,101074.00
2023-03-05T16:43:36.811Z,101063.41
2023-03-05T16:46:04.256Z,101061.63
2023-03-05T16:48:32.798Z,101067.63
2023-03-05T16:51:00.724Z,101056.22
2023-03-05T16:53:28.143Z,101056.97
2023-03-05T16:55:55.471Z,101047.31
2023-03-05T16:58:22.786Z,101047.22
2023-03-05T17:00:50.213Z,101044.56
2023-03-05T17:03:17.281Z,101048.00
2023-03-05T17:05:44.786Z,101044.47
2023-03-05T17:08:12.168Z,101048.72
2023-03-05T17:10:39.333Z,101050.41
2023-03-05T17:13:06.599Z,101049.53
2023-03-05T17:15:34.109Z,101045.03
2023-03-05T17:18:01.771Z,101039.53
2023-03-05T17:20:29.055Z,101050.56
2023-03-05T17:22:56.591Z,101038.84
2023-03-05T17:25:23.913Z,101046.41
2023-03-05T17:27:51.441Z,101043.63
2023-03-05T17:30:18.882Z,101040.84
2023-03-05T17:32:46.320Z,101042.53
2023-03-05T17:35:22.116Z,101045.91
2023-03-05T17:37:50.490Z,101039.75
2023-03-05T17:40:18.526Z,101042.31
2023-03-05T17:42:46.115Z,101043.22
2023-03-05T17:45:14.015Z,101039.72
2023-03-05T17:47:41.159Z,101043.09
2023-03-05T17:50:09.941Z,101039.53
2023-03-05T17:52:39.428Z,101046.38
2023-03-05T17:55:10.730Z,101041.94
2023-03-05T17:57:41.660Z,101037.56
2023-03-05T18:00:16.777Z,101043.53
2023-03-05T18:02:44.315Z,101043.47
2023-03-05T18:05:12.648Z,101039.13
2023-03-05T18:07:40.076Z,101041.63
2023-03-05T18:10:09.087Z,101039.88
2023-03-05T18:12:36.885Z,101038.06
2023-03-05T18:15:06.829Z,101031.06
2023-03-05T18:17:33.959Z,101035.34
2023-03-05T18:20:03.837Z,101034.44
2023-03-05T18:22:31.455Z,101031.78
2023-03-05T18:24:59.200Z,101023.88
2023-03-05T18:27:26.608Z,101024.69
2023-03-05T18:29:54.261Z,101025.56
2023-03-05T18:32:24.668Z,101013.34
2023-03-05T18:34:52.228Z,101019.44
2023-03-05T18:37:19.548Z,101019.41
2023-03-05T18:39:46.916Z,101018.56
2023-03-05T18:42:14.867Z,101013.31
2023-03-05T18:44:42.421Z,101009.84
2023-03-05T18:47:09.866Z,101005.50
2023-03-05T18:49:37.265Z,101002.06
2023-03-05T18:52:05.101Z,101003.75
2023-03-05T18:54:33.237Z,101001.16
2023-03-05T18:57:00.480Z,100995.00
2023-03-05T18:59:29.650Z,100993.22
2023-03-05T19:01:56.923Z,100993.19
2023-03-05T19:04:24.083Z,100999.25
2023-03-05T19:06:51.519Z,100992.31
2023-03-05T19:09:20.896Z,100997.53
2023-03-05T19:11:48.527Z,100994.06
2023-03-05T19:14:15.758Z,100986.25
2023-03-05T19:16:44.295Z,100993.16
2023-03-05T19:19:19.167Z,100981.00
2023-03-05T19:21:55.245Z,100977.50
2023-03-05T19:24:24.754Z,100982.72
2023-03-05T19:26:55.410Z,100984.44
2023-03-05T19:29:24.182Z,100980.91
2023-03-05T19:31:53.074Z,100973.88
2023-03-05T19:34:21.699Z,100976.47
2023-03-05T19:36:48.872Z,100968.59
2023-03-05T19:39:16.412Z,100968.56
2023-03-05T19:41:43.688Z,100960.72
2023-03-05T19:44:12.446Z,100956.28
2023-03-05T19:46:41.833Z,100955.41
2023-03-05T19:49:09.497Z,100951.00
2023-03-05T19:51:37.293Z,100942.31
2023-03-05T19:54:05.589Z,100939.69
2023-03-05T19:56:32.637Z,100945.75
2023-03-05T19:58:59.851Z,100945.72
2023-03-05T20:01:28.031Z,100941.28
2023-03-05T20:04:01.422Z,100934.25
2023-03-05T20:06:30.843Z,100938.56
2023-03-05T20:08:59.428Z,100932.50
2023-03-05T20:11:27.426Z,100931.63
2023-03-05T20:13:56.391Z,100931.63
2023-03-05T20:16:29.923Z,100928.97
2023-03-05T20:18:59.598Z,100933.34
2023-03-05T20:21:33.954Z,100928.97
2023-03-05T20:24:09.957Z,100921.13
2023-03-05T20:26:39.134Z,100919.34
2023-03-05T20:29:07.000Z,100919.34
2023-03-05T20:31:37.110Z,100921.13
2023-03-05T20:34:11.938Z,100913.22
2023-03-05T20:36:39.104Z,100921.03
2023-03-05T20:39:08.005Z,100912.28
2023-03-05T20:41:37.879Z,100908.78
2023-03-05T20:44:06.368Z,100908.78
2023-03-05T20:46:49.746Z,100901.81
2023-03-05T20:49:17.508Z,100913.13
2023-03-05T20:51:49.721Z,100896.53
2023-03-05T20:54:17.587Z,100897.38
2023-03-05T20:56:45.181Z,100893.84
2023-03-05T20:59:12.642Z,100894.72
2023-03-05T21:01:40.985Z,100895.56
2023-03-05T21:04:09.181Z,100891.22
2023-03-05T21:06:37.381Z,100892.06
2023-03-05T21:09:04.793Z,100882.50
2023-03-05T21:11:32.308Z,100883.34
2023-03-05T21:13:59.747Z,100885.88
2023-03-05T21:16:28.097Z,100876.31
2023-03-05T21:18:57.454Z,100877.16
2023-03-05T21:21:25.244Z,100871.09
2023-03-05T21:23:53.473Z,100871.06
2023-03-05T21:26:21.104Z,100865.81
2023-03-05T21:28:48.948Z,100861.44
2023-03-05T21:31:20.712Z,100867.50
2023-03-05T21:33:49.474Z,100853.53
2023-03-05T21:36:19.259Z,100859.63
2023-03-05T21:38:50.124Z,100851.78
2023-03-05T21:41:18.380Z,100862.19
2023-03-05T21:43:45.781Z,100850.84
2023-03-05T21:46:13.343Z,100844.78
2023-03-05T21:48:45.683Z,100846.53
2023-03-05T21:51:14.202Z,100846.56
2023-03-05T21:53:42.008Z,100845.69
2023-03-05T21:56:24.440Z,100843.94
2023-03-05T21:58:53.190Z,100846.50
2023-03-05T22:01:21.828Z,100836.91
2023-03-05T22:03:54.277Z,100832.53
2023-03-05T22:06:21.569Z,100826.38
2023-03-05T22:08:49.635Z,100818.47
2023-03-05T22:11:20.918Z,100818.44
2023-03-05T22:13:48.432Z,100816.69
2023-03-05T22:16:27.143Z,100810.53
2023-03-05T22:18:55.701Z,100803.53
2023-03-05T22:21:27.684Z,100794.81
2023-03-05T22:24:00.693Z,100797.31
2023-03-05T22:26:39.153Z,100797.38
2023-03-05T22:29:11.875Z,100797.31
2023-03-05T22:31:40.709Z,100790.34
2023-03-05T22:34:08.217Z,100793.84
2023-03-05T22:36:35.842Z,100784.22
2023-03-05T22:39:04.840Z,100788.56
2023-03-05T22:41:33.507Z,100778.13
2023-03-05T22:44:00.878Z,100772.94
2023-03-05T22:46:28.360Z,100780.69
2023-03-05T22:48:55.795Z,100779.75
2023-03-05T22:51:23.193Z,100774.53
2023-03-05T22:53:50.698Z,100768.44
2023-03-05T22:56:20.515Z,100764.91
2023-03-05T22:58:48.245Z,100763.13
2023-03-05T23:01:25.166Z,100758.81
2023-03-05T23:03:58.746Z,100754.44
2023-03-05T23:06:26.165Z,100744.91
2023-03-05T23:08:54.728Z,100747.53
2023-03-05T23:11:23.036Z,100747.53
2023-03-05T23:13:50.294Z,100744.91
2023-03-05T23:16:17.678Z,100745.75
2023-03-05T23:18:44.956Z,100741.38
2023-03-05T23:21:12.101Z,100734.38
2023-03-05T23:23:41.528Z,100744.78
2023-03-05T23:26:13.249Z,100741.22
2023-03-05T23:28:40.674Z,100741.22
2023-03-05T23:31:08.980Z,100743.00
2023-03-05T23:33:38.841Z,100735.13
2023-03-05T23:36:07.343Z,100738.53
2023-03-05T23:38:36.837Z,100734.09
2023-03-05T23:41:09.583Z,100727.13
2023-03-05T23:43:36.605Z,100727.91
2023-03-05T23:46:03.841Z,100726.13
2023-03-05T23:48:31.923Z,100724.38
2023-03-05T23:50:59.260Z,100723.50
2023-03-05T23:53:31.308Z,100721.72
2023-03-05T23:55:58.596Z,100726.06
2023-03-05T23:58:26.229Z,100721.72
